Cmb Yasmine — VRIC4 — position and weather

sailwx.info

Track history (hours):
 
Tides and Currents Weather Stations Pressure Air Temp Water Temp Dewpoint Dewpoint Depression Visibility Wind Speed Wind Dir Waves Ship Positions

Cmb Yasmine

Last reported at 2017-Oct-15 21:00 UTC. Time now 2017-Oct-19 22:08 UTC.
Position N 34°35' W 009°49'.

Length 180 m; draft 9.6 m.

Type: Cargo ship. MMSI: 477802800.

Date/timePositionNaut miles runAvg speedWind from/ knotsBaromVisibWave heightAir tempDewpointWater temp
2017-Oct-15 21:00N 34°35' W 009°49'712.7
2017-Oct-15 20:25N 34°38' W 009°57'612.4
2017-Oct-15 19:57N 34°40' W 010°03'612.2
2017-Oct-15 19:30N 34°42' W 010°09'612.4
2017-Oct-15 18:59N 34°45' W 010°16'712.9
2017-Oct-15 18:28N 34°47' W 010°24'613.0
2017-Oct-15 18:00N 34°50' W 010°31'613.1
2017-Oct-15 17:30N 34°52' W 010°38'713.0
2017-Oct-15 17:00N 34°54' W 010°46'612.9
2017-Oct-15 16:30N 34°57' W 010°53'612.7
2017-Oct-15 15:59N 34°59' W 011°00'612.7
2017-Oct-15 15:30N 35°02' W 011°07'612.5
2017-Oct-15 15:00N 35°04' W 011°14'1212.4
2017-Oct-15 14:00N 35°09' W 011°28'612.2
2017-Oct-15 13:30N 35°11' W 011°35'612.2
2017-Oct-15 13:00N 35°13' W 011°42'612.4
2017-Oct-15 12:30N 35°16' W 011°49'10616.3
2017-Oct-15 06:00N 36°42' W 013°06'5561.0 180 / 121018.4 5.4 23.019.921.0
2017-Oct-15 05:05N 35°50' W 013°31'112.5
2017-Oct-15 05:00N 35°51' W 013°32'1312.4
2017-Oct-15 03:55N 35°56' W 013°48'912.6
2017-Oct-15 03:14N 35°59' W 013°57'3212.3
2017-Oct-15 00:36N 36°12' W 014°34'112.5
2017-Oct-15 00:29N 36°12' W 014°36'712.6
2017-Oct-14 23:57N 36°15' W 014°44'14712.3
2017-Oct-14 12:00N 37°06' W 017°36'8013.3 260 / 61021.5 5.4 23.019.921.0
2017-Oct-14 06:00N 37°30' W 019°12'7512.5 190 / 101020.4 22.018.922.0
2017-Oct-14 00:00N 37°54' W 020°42'14712.3 220 / 81020.5 5.4 22.018.922.0
2017-Oct-13 12:00N 38°36' W 023°42'421.3 210 / 61021.5 5.4 23.018.322.0
2017-Oct-13 11:48N 38°38' W 023°47'412.4
2017-Oct-13 11:27N 38°39' W 023°52'1212.4
2017-Oct-13 10:29N 38°43' W 024°07'812.4
2017-Oct-13 09:48N 38°45' W 024°17'412.6
2017-Oct-13 09:29N 38°46' W 024°22'712.4
2017-Oct-13 08:57N 38°48' W 024°30'612.4
2017-Oct-13 08:29N 38°49' W 024°37'712.5
2017-Oct-13 07:54N 38°52' W 024°46'512.6
2017-Oct-13 07:30N 38°53' W 024°52'712.6
2017-Oct-13 06:57N 38°55' W 025°01'912.3
2017-Oct-13 06:15N 38°57' W 025°12'1312.6
2017-Oct-13 05:11N 39°00' W 025°28'3512.4
2017-Oct-13 02:23N 39°08' W 026°12'612.4
2017-Oct-13 01:56N 39°09' W 026°19'2012.3
2017-Oct-13 00:20N 39°14' W 026°44'412.3
2017-Oct-13 00:00N 39°14' W 026°49'1712.6
2017-Oct-12 22:41N 39°18' W 027°10'312.7
2017-Oct-12 22:26N 39°19' W 027°14'512.5
2017-Oct-12 22:00N 39°20' W 027°21'612.5
2017-Oct-12 21:30N 39°22' W 027°29'612.8
2017-Oct-12 21:00N 39°23' W 027°36'612.4
2017-Oct-12 20:30N 39°24' W 027°44'612.5
2017-Oct-12 20:00N 39°26' W 027°52'612.5
2017-Oct-12 19:30N 39°27' W 028°00'510.4
2017-Oct-12 19:00N 39°28' W 028°07'1112.6
2017-Oct-12 18:10N 39°30' W 028°20'312.4
2017-Oct-12 17:57N 39°31' W 028°24'512.3
2017-Oct-12 17:30N 39°32' W 028°30'612.5
2017-Oct-12 17:00N 39°34' W 028°38'612.6
2017-Oct-12 16:30N 39°36' W 028°46'612.3
2017-Oct-12 16:00N 39°37' W 028°54'812.4
2017-Oct-12 15:22N 39°39' W 029°04'412.4
2017-Oct-12 15:00N 39°40' W 029°10'612.6
2017-Oct-12 14:30N 39°41' W 029°17'612.5
2017-Oct-12 14:00N 39°43' W 029°25'612.4
2017-Oct-12 13:30N 39°44' W 029°33'612.4
2017-Oct-12 13:00N 39°45' W 029°41'712.9
2017-Oct-12 12:28N 39°47' W 029°50'3 7.2
2017-Oct-12 12:00N 39°48' W 029°54'624.2 210 / 181019.4 5.4 24.019.422.0
2017-Oct-12 11:46N 39°49' W 030°01'312.2
2017-Oct-12 11:30N 39°49' W 030°05'712.2
2017-Oct-12 10:56N 39°51' W 030°14'512.1
2017-Oct-12 10:30N 39°52' W 030°21'611.9
2017-Oct-12 10:00N 39°54' W 030°28'1012.2
2017-Oct-12 09:13N 39°56' W 030°40'412.5
2017-Oct-12 08:54N 39°57' W 030°45'2512.7
2017-Oct-12 06:58N 40°01' W 031°17'1010.3
2017-Oct-12 06:00N 40°00' W 031°30'10013.1 240 / 141018.2 5.4 22.020.522.0
2017-Oct-11 22:21N 40°13' W 033°39'13012.6
2017-Oct-11 12:00N 40°18' W 036°30'30212.6 240 / 201017.4 2.2 23.019.9
2017-Oct-10 12:00N 40°30' W 043°06'7312.2 280 / 151023.510.8 23.021.5
2017-Oct-10 06:00N 40°30' W 044°42'8213.7 270 / 71024.5 5.4 19.017.4
2017-Oct-10 00:00N 40°24' W 046°30'7312.2 240 / 101026.5 5.4 19.017.422.0
2017-Oct-09 18:00N 40°18' W 048°06'8714.5 270 / 71026.510.8 26.023.122.0
2017-Oct-09 12:00N 40°18' W 050°00'7913.1 260 / 91028.510.8 23.016.524.0
2017-Oct-09 06:00N 40°06' W 051°42'7312.2 010 / 71027.5 5.4 23.018.320.0
2017-Oct-09 00:00N 40°06' W 053°18'7111.9 250 / 61027.510.8 23.016.5
2017-Oct-08 18:00N 39°48' W 054°48'7913.2 050 / 71027.510.8 24.021.022.0
2017-Oct-08 12:00N 39°36' W 056°30'8013.3 240 / 51027.510.8 24.022.524.0
2017-Oct-08 06:00N 39°24' W 058°12'49883.0 050 / 101027.5 5.4 24.024.025.0
2017-Oct-08 00:00N 31°12' W 059°48'46978.2 240 / 51027.5 5.4 23.023.024.0
2017-Oct-07 18:00N 38°54' W 061°30'7712.8 060 / 71026.5 26.024.6
2017-Oct-07 12:00N 38°36' W 063°06'7312.1 220 / 71025.5 5.4 23.023.024.0
2017-Oct-07 06:00N 38°18' W 064°36'7812.9 040 / 161024.510.8 24.022.525.0
2017-Oct-07 00:00N 38°00' W 066°12'   240 / 161025.5 1.5 23.023.022.0
Track history (hours):
 
Tides and Currents Weather Stations Pressure Air Temp Water Temp Dewpoint Dewpoint Depression Visibility Wind Speed Wind Dir Waves Ship Positions

Cmb Yasmine

Last reported at 2017-Oct-15 21:00 UTC. Time now 2017-Oct-19 22:08 UTC.
Position N 34°35' W 009°49'.

Length 180 m; draft 9.6 m.

Type: Cargo ship. MMSI: 477802800.

Date/timePositionNaut miles runAvg speedWind from/ knotsBaromVisibWave heightAir tempDewpointWater temp
2017-Oct-15 21:00N 34°35' W 009°49'712.7
2017-Oct-15 20:25N 34°38' W 009°57'612.4
2017-Oct-15 19:57N 34°40' W 010°03'612.2
2017-Oct-15 19:30N 34°42' W 010°09'612.4
2017-Oct-15 18:59N 34°45' W 010°16'712.9
2017-Oct-15 18:28N 34°47' W 010°24'613.0
2017-Oct-15 18:00N 34°50' W 010°31'613.1
2017-Oct-15 17:30N 34°52' W 010°38'713.0
2017-Oct-15 17:00N 34°54' W 010°46'612.9
2017-Oct-15 16:30N 34°57' W 010°53'612.7
2017-Oct-15 15:59N 34°59' W 011°00'612.7
2017-Oct-15 15:30N 35°02' W 011°07'612.5
2017-Oct-15 15:00N 35°04' W 011°14'1212.4
2017-Oct-15 14:00N 35°09' W 011°28'612.2
2017-Oct-15 13:30N 35°11' W 011°35'612.2
2017-Oct-15 13:00N 35°13' W 011°42'612.4
2017-Oct-15 12:30N 35°16' W 011°49'10616.3
2017-Oct-15 06:00N 36°42' W 013°06'5561.0 180 / 121018.4 5.4 23.019.921.0
2017-Oct-15 05:05N 35°50' W 013°31'112.5
2017-Oct-15 05:00N 35°51' W 013°32'1312.4
2017-Oct-15 03:55N 35°56' W 013°48'912.6
2017-Oct-15 03:14N 35°59' W 013°57'3212.3
2017-Oct-15 00:36N 36°12' W 014°34'112.5
2017-Oct-15 00:29N 36°12' W 014°36'712.6
2017-Oct-14 23:57N 36°15' W 014°44'14712.3
2017-Oct-14 12:00N 37°06' W 017°36'8013.3 260 / 61021.5 5.4 23.019.921.0
2017-Oct-14 06:00N 37°30' W 019°12'7512.5 190 / 101020.4 22.018.922.0
2017-Oct-14 00:00N 37°54' W 020°42'14712.3 220 / 81020.5 5.4 22.018.922.0
2017-Oct-13 12:00N 38°36' W 023°42'421.3 210 / 61021.5 5.4 23.018.322.0
2017-Oct-13 11:48N 38°38' W 023°47'412.4
2017-Oct-13 11:27N 38°39' W 023°52'1212.4
2017-Oct-13 10:29N 38°43' W 024°07'812.4
2017-Oct-13 09:48N 38°45' W 024°17'412.6
2017-Oct-13 09:29N 38°46' W 024°22'712.4
2017-Oct-13 08:57N 38°48' W 024°30'612.4
2017-Oct-13 08:29N 38°49' W 024°37'712.5
2017-Oct-13 07:54N 38°52' W 024°46'512.6
2017-Oct-13 07:30N 38°53' W 024°52'712.6
2017-Oct-13 06:57N 38°55' W 025°01'912.3
2017-Oct-13 06:15N 38°57' W 025°12'1312.6
2017-Oct-13 05:11N 39°00' W 025°28'3512.4
2017-Oct-13 02:23N 39°08' W 026°12'612.4
2017-Oct-13 01:56N 39°09' W 026°19'2012.3
2017-Oct-13 00:20N 39°14' W 026°44'412.3
2017-Oct-13 00:00N 39°14' W 026°49'1712.6
2017-Oct-12 22:41N 39°18' W 027°10'312.7
2017-Oct-12 22:26N 39°19' W 027°14'512.5
2017-Oct-12 22:00N 39°20' W 027°21'612.5
2017-Oct-12 21:30N 39°22' W 027°29'612.8
2017-Oct-12 21:00N 39°23' W 027°36'612.4
2017-Oct-12 20:30N 39°24' W 027°44'612.5
2017-Oct-12 20:00N 39°26' W 027°52'612.5
2017-Oct-12 19:30N 39°27' W 028°00'510.4
2017-Oct-12 19:00N 39°28' W 028°07'1112.6
2017-Oct-12 18:10N 39°30' W 028°20'312.4
2017-Oct-12 17:57N 39°31' W 028°24'512.3
2017-Oct-12 17:30N 39°32' W 028°30'612.5
2017-Oct-12 17:00N 39°34' W 028°38'612.6
2017-Oct-12 16:30N 39°36' W 028°46'612.3
2017-Oct-12 16:00N 39°37' W 028°54'812.4
2017-Oct-12 15:22N 39°39' W 029°04'412.4
2017-Oct-12 15:00N 39°40' W 029°10'612.6
2017-Oct-12 14:30N 39°41' W 029°17'612.5
2017-Oct-12 14:00N 39°43' W 029°25'612.4
2017-Oct-12 13:30N 39°44' W 029°33'612.4
2017-Oct-12 13:00N 39°45' W 029°41'712.9
2017-Oct-12 12:28N 39°47' W 029°50'3 7.2
2017-Oct-12 12:00N 39°48' W 029°54'624.2 210 / 181019.4 5.4 24.019.422.0
2017-Oct-12 11:46N 39°49' W 030°01'312.2
2017-Oct-12 11:30N 39°49' W 030°05'712.2
2017-Oct-12 10:56N 39°51' W 030°14'512.1
2017-Oct-12 10:30N 39°52' W 030°21'611.9
2017-Oct-12 10:00N 39°54' W 030°28'1012.2
2017-Oct-12 09:13N 39°56' W 030°40'412.5
2017-Oct-12 08:54N 39°57' W 030°45'2512.7
2017-Oct-12 06:58N 40°01' W 031°17'1010.3
2017-Oct-12 06:00N 40°00' W 031°30'10013.1 240 / 141018.2 5.4 22.020.522.0
2017-Oct-11 22:21N 40°13' W 033°39'13012.6
2017-Oct-11 12:00N 40°18' W 036°30'30212.6 240 / 201017.4 2.2 23.019.9
2017-Oct-10 12:00N 40°30' W 043°06'7312.2 280 / 151023.510.8 23.021.5
2017-Oct-10 06:00N 40°30' W 044°42'8213.7 270 / 71024.5 5.4 19.017.4
2017-Oct-10 00:00N 40°24' W 046°30'7312.2 240 / 101026.5 5.4 19.017.422.0
2017-Oct-09 18:00N 40°18' W 048°06'8714.5 270 / 71026.510.8 26.023.122.0
2017-Oct-09 12:00N 40°18' W 050°00'7913.1 260 / 91028.510.8 23.016.524.0
2017-Oct-09 06:00N 40°06' W 051°42'7312.2 010 / 71027.5 5.4 23.018.320.0
2017-Oct-09 00:00N 40°06' W 053°18'7111.9 250 / 61027.510.8 23.016.5
2017-Oct-08 18:00N 39°48' W 054°48'7913.2 050 / 71027.510.8 24.021.022.0
2017-Oct-08 12:00N 39°36' W 056°30'8013.3 240 / 51027.510.8 24.022.524.0
2017-Oct-08 06:00N 39°24' W 058°12'49883.0 050 / 101027.5 5.4 24.024.025.0
2017-Oct-08 00:00N 31°12' W 059°48'46978.2 240 / 51027.5 5.4 23.023.024.0
2017-Oct-07 18:00N 38°54' W 061°30'7712.8 060 / 71026.5 26.024.6
2017-Oct-07 12:00N 38°36' W 063°06'7312.1 220 / 71025.5 5.4 23.023.024.0
2017-Oct-07 06:00N 38°18' W 064°36'7812.9 040 / 161024.510.8 24.022.525.0
2017-Oct-07 00:00N 38°00' W 066°12'   240 / 161025.5 1.5 23.023.022.0

Dump ship's entire track history